Time;durP1;ratioP1;P1;durP2;ratioP2;P2;SDS_P1;SDS_P2;PMS_P1;PMS_P2;Temp;Humidity;BMP_temperature;BMP_pressure;BME280_temperature;BME280_humidity;BME280_pressure;Samples;Min_cycle;Max_cycle;Signal;HPM_P1;HPM_P2
2024/03/26 00:02:55;;;;;;;4.72;2.50;;;;;;;3.60;90.10;99341.56;6233349;28;20057;-66
2024/03/26 00:05:56;;;;;;;3.00;2.10;;;;;;;3.58;90.54;99347.69;6230108;28;20052;-66
2024/03/26 00:08:57;;;;;;;4.07;2.20;;;;;;;3.48;91.00;99354.13;6235650;28;20458;-67
2024/03/26 00:12:01;;;;;;;3.70;2.25;;;;;;;3.37;91.11;99355.44;6234202;28;20052;-66
2024/03/26 00:15:02;;;;;;;5.35;2.67;;;;;;;3.33;91.51;99355.63;6233247;28;20100;-66
2024/03/26 00:18:03;;;;;;;7.97;3.28;;;;;;;3.27;91.10;99354.16;6240965;28;20053;-67
2024/03/26 00:21:04;;;;;;;6.85;4.07;;;;;;;3.14;92.27;99353.81;6234505;28;20045;-66
2024/03/26 00:24:05;;;;;;;5.45;3.30;;;;;;;3.04;93.51;99342.22;6276820;28;20422;-66
2024/03/26 00:27:06;;;;;;;5.40;3.45;;;;;;;3.14;92.99;99348.66;6274522;28;20136;-66
2024/03/26 00:30:08;;;;;;;6.82;3.67;;;;;;;3.12;92.82;99341.91;6261482;28;20048;-66
2024/03/26 00:33:09;;;;;;;10.15;3.45;;;;;;;3.08;92.69;99345.53;6249359;28;20497;-66
2024/03/26 00:36:11;;;;;;;6.43;2.83;;;;;;;2.98;93.55;99337.31;6248852;28;20225;-66
2024/03/26 00:39:12;;;;;;;4.65;2.65;;;;;;;2.94;93.71;99339.19;6255072;28;20055;-66
2024/03/26 00:42:13;;;;;;;4.68;2.60;;;;;;;2.82;94.37;99344.84;6270028;28;20095;-66
2024/03/26 00:45:14;;;;;;;3.22;2.42;;;;;;;2.84;94.48;99345.59;6257958;28;20060;-67
2024/03/26 00:48:18;;;;;;;3.63;2.45;;;;;;;2.80;94.80;99349.22;6261246;28;20056;-67
2024/03/26 00:51:19;;;;;;;4.40;2.55;;;;;;;2.87;94.08;99362.72;6248301;28;20424;-67
2024/03/26 00:54:20;;;;;;;4.05;2.63;;;;;;;2.77;93.90;99362.22;6248204;28;20065;-66
2024/03/26 00:57:21;;;;;;;5.55;3.40;;;;;;;2.78;94.05;99367.34;6266089;28;20072;-66
2024/03/26 01:00:22;;;;;;;4.90;3.42;;;;;;;2.70;94.85;99361.63;6261020;28;20049;-68
2024/03/26 01:03:23;;;;;;;4.30;2.78;;;;;;;2.67;95.65;99361.75;6271611;28;20107;-67
2024/03/26 01:06:24;;;;;;;4.90;2.78;;;;;;;2.61;96.94;99364.56;6250338;28;20464;-67
2024/03/26 01:09:24;;;;;;;4.47;2.75;;;;;;;2.54;96.83;99363.97;6248604;28;20089;-67
2024/03/26 01:12:25;;;;;;;5.43;2.58;;;;;;;2.55;96.48;99367.38;6248761;28;20081;-66
2024/03/26 01:15:26;;;;;;;5.43;2.85;;;;;;;2.41;96.50;99366.19;6266439;28;20048;-67
2024/03/26 01:18:29;;;;;;;6.05;2.63;;;;;;;2.44;97.29;99359.25;6272918;28;20079;-67
2024/03/26 01:21:30;;;;;;;4.70;2.55;;;;;;;2.40;97.30;99372.22;6273807;28;20052;-67
2024/03/26 01:24:31;;;;;;;3.92;2.50;;;;;;;2.41;96.23;99370.50;6256910;28;20053;-67
2024/03/26 01:27:35;;;;;;;5.22;2.65;;;;;;;2.40;97.12;99379.94;6272867;28;20064;-67
2024/03/26 01:30:36;;;;;;;4.70;2.85;;;;;;;2.34;97.15;99371.63;6272833;28;20049;-67
2024/03/26 01:33:40;;;;;;;6.00;3.28;;;;;;;2.33;96.75;99377.69;6272919;28;20198;-66
2024/03/26 01:36:41;;;;;;;3.70;2.47;;;;;;;2.27;96.57;99381.31;6273601;28;20568;-66
2024/03/26 01:39:42;;;;;;;5.32;2.85;;;;;;;2.25;96.95;99387.44;6273727;28;20060;-66
2024/03/26 01:42:43;;;;;;;4.15;2.47;;;;;;;2.29;96.83;99383.84;6267452;28;20072;-66
2024/03/26 01:45:43;;;;;;;3.50;2.60;;;;;;;2.24;97.52;99386.56;6259887;28;20057;-66
2024/03/26 01:48:45;;;;;;;7.78;3.28;;;;;;;2.22;99.69;99386.66;6269450;28;20477;-66
2024/03/26 01:51:46;;;;;;;6.30;2.58;;;;;;;2.29;100.00;99389.00;6269905;28;20071;-67
2024/03/26 01:54:49;;;;;;;4.82;2.85;;;;;;;2.28;100.00;99387.31;6272187;28;20594;-66
2024/03/26 01:57:49;;;;;;;;;;;;;;;2.19;100.00;99397.06;6274046;28;20053;-66
2024/03/26 02:00:52;;;;;;;4.90;2.58;;;;;;;2.18;100.00;99390.25;6272309;28;20016;-66
2024/03/26 02:03:54;;;;;;;3.92;2.95;;;;;;;2.19;100.00;99394.47;6270191;28;20053;-66
2024/03/26 02:06:55;;;;;;;7.75;2.78;;;;;;;2.19;100.00;99396.22;6271982;28;20425;-67
2024/03/26 02:09:56;;;;;;;3.53;2.40;;;;;;;2.28;100.00;99401.00;6271819;28;20053;-66
2024/03/26 02:12:57;;;;;;;4.72;2.80;;;;;;;2.24;100.00;99404.59;6273184;28;20045;-66
2024/03/26 02:16:00;;;;;;;4.30;2.78;;;;;;;2.20;100.00;99403.03;6272837;28;20493;-67
2024/03/26 02:19:02;;;;;;;4.80;3.00;;;;;;;2.14;100.00;99400.69;6271991;28;20139;-66
2024/03/26 02:22:03;;;;;;;6.17;3.03;;;;;;;2.11;100.00;99393.91;6271683;28;20049;-66
2024/03/26 02:25:04;;;;;;;6.10;2.35;;;;;;;2.15;100.00;99416.06;6255169;28;20324;-66
2024/03/26 02:28:06;;;;;;;4.78;2.95;;;;;;;2.15;100.00;99420.41;6272380;28;20408;-66
2024/03/26 02:31:07;;;;;;;5.65;3.55;;;;;;;2.04;100.00;99410.50;6271829;28;20087;-66
2024/03/26 02:34:10;;;;;;;5.38;3.15;;;;;;;2.09;100.00;99426.59;6272208;28;20132;-66
2024/03/26 02:37:11;;;;;;;3.55;2.60;;;;;;;2.06;100.00;99425.84;6271159;28;20049;-66
2024/03/26 02:40:12;;;;;;;4.90;2.70;;;;;;;2.00;100.00;99421.78;6272653;28;20090;-66
2024/03/26 02:43:13;;;;;;;5.00;2.60;;;;;;;1.94;100.00;99412.56;6271083;28;20552;-66
2024/03/26 02:46:14;;;;;;;5.15;2.80;;;;;;;1.95;100.00;99427.06;6261837;28;20100;-67
2024/03/26 02:49:15;;;;;;;5.65;3.08;;;;;;;1.93;100.00;99433.19;6248875;28;20045;-66
2024/03/26 02:52:16;;;;;;;4.30;2.80;;;;;;;1.92;100.00;99434.91;6269949;28;20057;-67
2024/03/26 02:55:17;;;;;;;5.20;3.10;;;;;;;1.98;100.00;99447.56;6272222;28;20067;-66
2024/03/26 02:58:18;;;;;;;4.72;2.78;;;;;;;1.98;100.00;99442.44;6304335;28;20136;-66
2024/03/26 03:01:20;;;;;;;3.87;2.20;;;;;;;1.93;100.00;99430.59;6272151;28;20053;-66
2024/03/26 03:04:21;;;;;;;4.32;2.47;;;;;;;1.87;100.00;99423.09;6270670;28;20057;-66
2024/03/26 03:07:22;;;;;;;5.45;2.65;;;;;;;1.84;100.00;99436.09;6271682;28;20048;-66
2024/03/26 03:10:23;;;;;;;4.68;2.97;;;;;;;1.83;100.00;99434.41;6270035;28;20056;-67
2024/03/26 03:13:24;;;;;;;5.05;2.92;;;;;;;1.82;100.00;99423.28;6269961;28;20065;-66
2024/03/26 03:16:25;;;;;;;4.32;2.78;;;;;;;1.76;100.00;99431.22;6270595;28;20053;-67
2024/03/26 03:19:28;;;;;;;6.18;2.67;;;;;;;1.68;100.00;99426.31;6270179;28;20130;-67
2024/03/26 03:22:29;;;;;;;4.47;2.85;;;;;;;1.61;99.87;99417.16;6270493;28;20507;-67
2024/03/26 03:25:30;;;;;;;5.50;3.40;;;;;;;1.58;99.54;99414.66;6256679;28;20058;-67
2024/03/26 03:28:31;;;;;;;5.72;3.22;;;;;;;1.56;99.18;99414.72;6247036;28;20402;-67
2024/03/26 03:31:34;;;;;;;4.63;2.97;;;;;;;1.45;99.22;99416.81;6242610;28;20077;-67
2024/03/26 03:34:35;;;;;;;6.55;3.85;;;;;;;1.45;100.00;99418.56;6233507;28;20664;-66
2024/03/26 03:37:36;;;;;;;8.40;4.28;;;;;;;1.43;100.00;99415.22;6236675;28;20116;-67
2024/03/26 03:40:37;;;;;;;6.53;3.67;;;;;;;1.50;100.00;99419.25;6235778;28;20038;-66
2024/03/26 03:43:38;;;;;;;11.95;3.92;;;;;;;1.48;100.00;99423.59;6233366;28;20054;-66
2024/03/26 03:46:39;;;;;;;7.00;3.35;;;;;;;1.44;100.00;99416.88;6231561;28;20061;-66
2024/03/26 03:49:40;;;;;;;6.57;3.15;;;;;;;1.38;100.00;99423.91;6222405;28;20061;-67
2024/03/26 03:52:40;;;;;;;6.18;3.90;;;;;;;1.40;100.00;99431.56;6240643;28;20140;-66
2024/03/26 03:55:41;;;;;;;5.45;3.33;;;;;;;1.35;100.00;99442.00;6234109;28;20438;-66
2024/03/26 03:58:42;;;;;;;6.30;3.47;;;;;;;1.29;100.00;99438.78;6235223;28;20057;-66
2024/03/26 04:01:43;;;;;;;4.57;2.72;;;;;;;1.29;100.00;99438.78;6237999;28;20046;-66
2024/03/26 04:04:44;;;;;;;4.78;3.28;;;;;;;1.26;100.00;99444.88;6237774;28;20053;-67
2024/03/26 04:07:45;;;;;;;3.63;2.75;;;;;;;1.26;100.00;99444.03;6233858;28;20053;-66
2024/03/26 04:10:46;;;;;;;3.35;2.58;;;;;;;1.22;100.00;99443.31;6236301;28;20123;-68
2024/03/26 04:13:49;;;;;;;8.77;3.05;;;;;;;1.23;100.00;99449.28;6235171;28;20422;-67
2024/03/26 04:16:50;;;;;;;4.57;2.90;;;;;;;1.32;100.00;99451.53;6227610;28;20041;-66
2024/03/26 04:19:50;;;;;;;4.47;3.30;;;;;;;1.26;100.00;99444.88;6232238;28;21785;-66
2024/03/26 04:22:51;;;;;;;17.67;9.55;;;;;;;1.19;100.00;99454.53;6249948;28;20053;-67
2024/03/26 04:26:00;;;;;;;24.98;10.90;;;;;;;1.15;100.00;99452.94;6247488;28;20088;-66
2024/03/26 04:29:02;;;;;;;15.38;8.23;;;;;;;1.17;100.00;99450.31;6267698;28;20132;-66
2024/03/26 04:32:03;;;;;;;7.63;4.75;;;;;;;1.17;100.00;99453.72;6268409;28;20037;-69
2024/03/26 04:35:04;;;;;;;10.82;5.40;;;;;;;1.15;100.00;99452.94;6258018;28;20114;-67
2024/03/26 04:38:05;;;;;;;7.05;4.05;;;;;;;1.04;100.00;99456.72;6263118;28;20138;-66
2024/03/26 04:41:05;;;;;;;8.15;4.80;;;;;;;1.10;100.00;99464.25;6271296;28;20041;-67
2024/03/26 04:44:06;;;;;;;8.85;4.68;;;;;;;1.22;100.00;99469.00;6263697;28;20053;-66
2024/03/26 04:47:07;;;;;;;8.27;5.10;;;;;;;1.16;100.00;99479.47;6254236;28;20128;-67
2024/03/26 04:50:08;;;;;;;15.68;8.68;;;;;;;1.17;100.00;99476.00;6254905;28;20421;-67
2024/03/26 04:53:09;;;;;;;13.05;8.18;;;;;;;1.26;100.00;99488.56;6264927;28;20057;-66
2024/03/26 04:56:10;;;;;;;12.50;7.13;;;;;;;1.30;100.00;99490.16;6258666;28;20440;-66
2024/03/26 04:59:11;;;;;;;14.52;7.25;;;;;;;1.36;100.00;99496.81;6248730;28;20061;-67
2024/03/26 05:02:12;;;;;;;13.30;8.20;;;;;;;1.42;100.00;99486.31;6250045;28;20099;-66
2024/03/26 05:05:15;;;;;;;12.20;8.00;;;;;;;1.49;100.00;99485.25;6248454;28;20422;-67
2024/03/26 05:08:16;;;;;;;10.90;7.93;;;;;;;1.58;100.00;99490.06;6249292;28;20473;-67
2024/03/26 05:11:17;;;;;;;17.27;9.18;;;;;;;1.71;100.00;99482.81;6248006;28;20045;-67
2024/03/26 05:14:18;;;;;;;15.70;9.27;;;;;;;1.89;100.00;99493.34;6258535;28;20485;-66
2024/03/26 05:17:18;;;;;;;16.10;8.15;;;;;;;1.96;100.00;99494.84;6260603;28;20055;-67
2024/03/26 05:20:21;;;;;;;12.75;7.40;;;;;;;2.07;100.00;99497.03;6250175;28;20084;-67
2024/03/26 05:23:24;;;;;;;13.60;6.57;;;;;;;2.25;100.00;99511.84;6247584;28;20068;-66
2024/03/26 05:26:25;;;;;;;9.25;5.00;;;;;;;2.33;100.00;99502.09;6250016;28;20068;-67
2024/03/26 05:29:26;;;;;;;8.60;4.70;;;;;;;2.48;100.00;99494.72;6255567;28;20494;-66
2024/03/26 05:32:27;;;;;;;8.88;4.75;;;;;;;2.67;100.00;99503.44;6247749;28;20478;-66
2024/03/26 05:35:29;;;;;;;7.45;4.50;;;;;;;2.73;100.00;99499.78;6247139;28;20414;-67
2024/03/26 05:38:30;;;;;;;7.28;4.43;;;;;;;2.93;100.00;99502.44;6258146;28;20520;-66
2024/03/26 05:41:32;;;;;;;12.25;4.15;;;;;;;3.08;100.00;99505.34;6257207;28;20049;-74
2024/03/26 05:44:33;;;;;;;9.50;4.03;;;;;;;3.23;100.00;99504.72;6265508;28;20055;-73
2024/03/26 05:47:33;;;;;;;8.75;4.38;;;;;;;3.35;100.00;99513.72;6281173;28;20049;-73
2024/03/26 05:50:34;;;;;;;13.10;6.57;;;;;;;3.55;100.00;99520.66;6247048;28;20072;-73
2024/03/26 05:53:35;;;;;;;9.45;5.07;;;;;;;3.68;100.00;99526.16;6246793;28;20063;-73
2024/03/26 05:56:36;;;;;;;8.82;4.30;;;;;;;3.88;100.00;99527.91;6248019;28;20061;-73
2024/03/26 05:59:37;;;;;;;15.50;5.70;;;;;;;4.04;100.00;99524.63;6247235;28;20049;-73
2024/03/26 06:02:38;;;;;;;11.98;5.20;;;;;;;4.18;100.00;99528.34;6248194;28;20456;-73
2024/03/26 06:05:40;;;;;;;12.23;4.22;;;;;;;4.37;100.00;99529.22;6246966;28;20083;-73
2024/03/26 06:08:40;;;;;;;13.63;5.55;;;;;;;4.66;100.00;99518.53;6248139;28;20084;-73
2024/03/26 06:11:41;;;;;;;9.18;4.53;;;;;;;4.82;100.00;99525.50;6246407;28;20482;-73
2024/03/26 06:14:42;;;;;;;11.77;5.00;;;;;;;5.01;100.00;99524.66;6247245;28;20511;-73
2024/03/26 06:17:43;;;;;;;6.93;2.75;;;;;;;5.29;98.20;99531.94;6247164;28;20046;-74
2024/03/26 06:20:44;;;;;;;7.47;3.42;;;;;;;5.42;96.19;99539.97;6246878;28;20060;-72
2024/03/26 06:23:47;;;;;;;4.65;2.90;;;;;;;5.78;95.01;99537.31;6246781;28;20057;-73
2024/03/26 06:26:48;;;;;;;7.05;3.40;;;;;;;6.02;93.83;99544.84;6247990;28;20071;-73
2024/03/26 06:29:49;;;;;;;4.45;2.80;;;;;;;6.20;93.17;99545.66;6248027;28;20041;-73
2024/03/26 06:32:50;;;;;;;5.50;3.13;;;;;;;6.39;91.83;99546.38;6263385;28;20107;-73
2024/03/26 06:35:51;;;;;;;4.35;3.05;;;;;;;6.38;91.29;99544.72;6246928;28;20128;-73
2024/03/26 06:38:53;;;;;;;4.20;2.97;;;;;;;6.42;89.64;99543.63;6247628;28;20144;-73
2024/03/26 06:41:54;;;;;;;5.65;3.20;;;;;;;6.57;87.96;99536.81;6247473;28;20552;-73
2024/03/26 06:44:55;;;;;;;5.47;3.15;;;;;;;6.79;87.70;99543.44;6246221;28;20057;-73
2024/03/26 06:47:56;;;;;;;7.68;3.20;;;;;;;6.79;86.45;99533.06;6246807;28;20494;-67
2024/03/26 06:50:57;;;;;;;6.88;3.17;;;;;;;6.94;87.01;99549.56;6246796;28;20053;-67
2024/03/26 06:53:59;;;;;;;4.50;2.67;;;;;;;7.04;85.15;99548.13;6246321;28;20072;-67
2024/03/26 06:56:59;;;;;;;4.20;2.85;;;;;;;7.16;84.56;99541.44;6245192;28;20060;-67
2024/03/26 07:00:01;;;;;;;6.00;3.20;;;;;;;7.44;84.41;99539.00;6246349;28;20053;-67
2024/03/26 07:03:02;;;;;;;4.57;2.72;;;;;;;7.45;82.63;99524.25;6245302;28;20053;-67
2024/03/26 07:06:06;;;;;;;6.18;3.33;;;;;;;7.50;82.53;99524.00;6246230;28;20128;-67
2024/03/26 07:09:07;;;;;;;5.00;2.80;;;;;;;7.95;81.57;99519.66;6246400;28;20088;-68
2024/03/26 07:12:08;;;;;;;3.33;2.38;;;;;;;7.96;79.38;99516.97;6246151;28;20072;-67
2024/03/26 07:15:10;;;;;;;5.20;2.97;;;;;;;8.00;79.46;99521.06;6246341;28;20494;-67
2024/03/26 07:18:11;;;;;;;3.78;2.58;;;;;;;8.17;78.65;99527.84;6245996;28;20144;-67
2024/03/26 07:21:12;;;;;;;5.03;2.90;;;;;;;8.30;78.48;99521.94;6244861;28;20115;-67
2024/03/26 07:24:15;;;;;;;4.63;3.15;;;;;;;8.47;77.72;99529.59;6243938;28;20050;-66
2024/03/26 07:27:16;;;;;;;6.88;3.63;;;;;;;8.51;76.58;99518.06;6246094;28;20049;-66
2024/03/26 07:30:17;;;;;;;4.20;2.67;;;;;;;8.62;77.01;99510.44;6245914;28;20414;-67
2024/03/26 07:33:18;;;;;;;4.43;3.00;;;;;;;8.98;75.30;99498.69;6244857;28;20486;-67
2024/03/26 07:36:19;;;;;;;3.53;2.33;;;;;;;9.19;75.12;99501.69;6244966;28;20061;-67
2024/03/26 07:39:23;;;;;;;4.50;3.03;;;;;;;9.59;73.26;99495.66;6244532;28;20136;-67
2024/03/26 07:42:24;;;;;;;5.57;2.92;;;;;;;9.79;71.59;99499.56;6244766;28;20510;-67
2024/03/26 07:45:24;;;;;;;5.55;3.00;;;;;;;9.98;72.26;99493.94;6245624;28;20064;-66
2024/03/26 07:48:25;;;;;;;5.25;3.38;;;;;;;10.03;70.32;99500.53;6245710;28;20056;-67
2024/03/26 07:51:27;;;;;;;3.78;2.58;;;;;;;10.20;68.65;99486.34;6244560;28;20479;-67
2024/03/26 07:54:30;;;;;;;6.50;3.00;;;;;;;10.58;67.85;99477.66;6244429;28;20064;-67
2024/03/26 07:57:31;;;;;;;4.60;3.08;;;;;;;10.78;66.60;99478.84;6244259;28;20049;-67
2024/03/26 08:00:35;;;;;;;6.93;3.03;;;;;;;10.87;65.97;99478.22;6244728;28;20052;-67
2024/03/26 08:03:40;;;;;;;5.35;3.22;;;;;;;10.81;65.09;99472.56;6245774;28;20053;-67
2024/03/26 08:06:41;;;;;;;6.28;2.63;;;;;;;11.05;64.08;99477.81;6245411;28;20123;-67
2024/03/26 08:09:42;;;;;;;4.18;2.80;;;;;;;11.14;63.23;99479.78;6245610;28;20041;-66
2024/03/26 08:12:43;;;;;;;4.10;2.60;;;;;;;11.32;63.09;99485.44;6244193;28;20141;-67
2024/03/26 08:15:45;;;;;;;4.68;2.90;;;;;;;11.40;63.59;99497.94;6245741;28;20053;-67
2024/03/26 08:18:48;;;;;;;8.90;3.25;;;;;;;11.62;62.16;99495.41;6244322;28;20060;-67
2024/03/26 08:21:49;;;;;;;6.43;3.13;;;;;;;11.88;60.96;99490.00;6244280;28;20125;-67
2024/03/26 08:24:50;;;;;;;6.25;2.72;;;;;;;12.00;60.82;99490.91;6244090;28;20061;-67
2024/03/26 08:27:51;;;;;;;11.55;6.35;;;;;;;12.25;58.94;99493.31;6245568;28;20057;-67
2024/03/26 08:30:52;;;;;;;4.95;3.00;;;;;;;12.18;59.13;99486.88;6244129;28;20057;-67
2024/03/26 08:33:53;;;;;;;8.82;4.55;;;;;;;12.54;59.23;99492.84;6246419;28;20050;-67
2024/03/26 08:36:56;;;;;;;8.80;5.47;;;;;;;12.46;56.66;99501.28;6249500;28;20418;-67
2024/03/26 08:39:58;;;;;;;4.88;3.03;;;;;;;12.74;56.93;99495.69;6248285;28;20045;-67
2024/03/26 08:42:59;;;;;;;4.82;2.60;;;;;;;12.95;56.31;99491.38;6248347;28;20115;-67
2024/03/26 08:46:00;;;;;;;3.30;2.42;;;;;;;12.98;55.62;99480.63;6248306;28;20045;-67
2024/03/26 08:49:01;;;;;;;3.42;2.30;;;;;;;12.92;55.40;99480.31;6249120;28;20409;-67
2024/03/26 08:52:02;;;;;;;3.40;2.22;;;;;;;13.39;53.63;99484.34;6248186;28;20045;-67
2024/03/26 08:55:03;;;;;;;3.45;2.35;;;;;;;13.34;54.34;99483.03;6248167;28;20049;-67
2024/03/26 08:58:04;;;;;;;4.00;2.10;;;;;;;13.36;52.76;99492.44;6264371;28;20056;-67
2024/03/26 09:01:08;;;;;;;3.97;2.42;;;;;;;13.43;52.94;99491.00;6248065;28;20054;-67
2024/03/26 09:04:08;;;;;;;8.48;2.45;;;;;;;13.35;52.83;99488.16;6249022;28;20061;-66
2024/03/26 09:07:09;;;;;;;4.03;2.20;;;;;;;13.58;51.38;99482.84;6247980;28;20041;-68
2024/03/26 09:10:13;;;;;;;2.90;2.22;;;;;;;14.06;51.22;99485.78;6247732;28;20053;-67
2024/03/26 09:13:14;;;;;;;2.65;2.03;;;;;;;14.21;49.54;99481.00;6248759;28;20449;-67
2024/03/26 09:16:15;;;;;;;3.50;1.85;;;;;;;14.36;48.92;99470.16;6247766;28;20050;-67
2024/03/26 09:19:17;;;;;;;4.05;2.28;;;;;;;14.42;48.39;99475.72;6247158;28;20490;-68
2024/03/26 09:22:18;;;;;;;6.00;2.28;;;;;;;14.53;49.28;99472.16;6247467;28;20103;-67
2024/03/26 09:25:18;;;;;;;3.55;2.10;;;;;;;14.77;48.63;99477.09;6247317;28;20449;-67
2024/03/26 09:28:20;;;;;;;4.20;2.00;;;;;;;14.95;46.98;99477.28;6247236;28;20053;-67
2024/03/26 09:31:20;;;;;;;3.25;1.60;;;;;;;14.81;46.46;99478.50;6247295;28;20050;-67
2024/03/26 09:34:21;;;;;;;2.70;1.65;;;;;;;15.24;45.40;99469.44;6248740;28;20054;-67
2024/03/26 09:37:22;;;;;;;2.38;1.63;;;;;;;15.31;45.36;99470.53;6248317;28;20060;-68
2024/03/26 09:40:24;;;;;;;1.95;1.75;;;;;;;15.40;44.45;99465.41;6246933;28;20053;-68
2024/03/26 09:43:28;;;;;;;2.65;1.63;;;;;;;15.54;43.99;99472.88;6248412;28;20057;-67
2024/03/26 09:46:30;;;;;;;5.30;1.30;;;;;;;15.64;42.38;99467.63;6247346;28;20148;-67
2024/03/26 09:49:33;;;;;;;;;;;;;;;15.70;44.00;99462.63;6247053;28;20498;-67
2024/03/26 09:52:34;;;;;;;2.38;1.23;;;;;;;15.95;41.89;99472.72;6246673;28;19928;-67
2024/03/26 09:55:36;;;;;;;2.08;1.30;;;;;;;15.75;40.99;99471.91;6247813;28;20509;-67
2024/03/26 09:58:37;;;;;;;3.67;1.55;;;;;;;16.00;40.71;99471.31;6247950;28;20128;-74
2024/03/26 10:01:39;;;;;;;2.88;1.67;;;;;;;16.07;40.95;99463.69;6247102;28;20075;-74
2024/03/26 10:04:40;;;;;;;9.82;1.50;;;;;;;16.02;40.18;99468.53;6248069;28;20088;-74
2024/03/26 10:07:44;;;;;;;2.17;1.25;;;;;;;16.35;40.95;99467.19;6246918;28;20501;-74
2024/03/26 10:10:45;;;;;;;2.75;1.17;;;;;;;16.29;39.37;99465.97;6246831;28;20081;-74
2024/03/26 10:13:46;;;;;;;1.83;1.30;;;;;;;16.78;39.63;99454.34;6246911;28;20045;-74
2024/03/26 10:16:47;;;;;;;1.33;1.10;;;;;;;16.76;39.34;99466.84;6246996;28;20278;-75
2024/03/26 10:19:48;;;;;;;1.60;1.13;;;;;;;16.71;38.89;99465.47;6246193;28;20053;-75
2024/03/26 10:22:59;;;;;;;3.47;1.02;;;;;;;16.80;37.27;99461.16;6246479;28;20119;-75
2024/03/26 10:26:02;;;;;;;4.00;0.93;;;;;;;16.60;35.96;99464.88;6246404;28;20057;-75
2024/03/26 10:29:03;;;;;;;1.92;0.95;;;;;;;17.28;37.87;99465.25;6247659;28;20050;-75
2024/03/26 10:32:05;;;;;;;1.02;0.90;;;;;;;17.04;36.68;99459.75;6247421;28;20478;-75
2024/03/26 10:35:08;;;;;;;7.87;3.63;;;;;;;17.17;37.86;99465.47;6245762;28;20053;-75
2024/03/26 10:38:10;;;;;;;1.08;0.95;;;;;;;17.09;36.93;99465.41;6245672;28;20079;-75
2024/03/26 10:41:32;;;;;;;1.27;1.00;;;;;;;16.74;37.70;99464.38;6247367;28;20052;-75
2024/03/26 10:44:34;;;;;;;3.25;1.08;;;;;;;17.46;38.73;99462.63;6247236;28;20057;-75
2024/03/26 10:47:37;;;;;;;4.63;1.23;;;;;;;17.20;37.82;99454.66;6246241;28;20056;-75
2024/03/26 10:50:41;;;;;;;3.38;1.20;;;;;;;17.47;36.76;99456.34;6247119;28;20115;-75
2024/03/26 10:53:42;;;;;;;0.85;0.80;;;;;;;17.85;35.41;99448.25;6245682;28;20494;-74
2024/03/26 10:56:47;;;;;;;2.38;1.00;;;;;;;17.19;36.82;99452.16;6246936;28;20103;-75
2024/03/26 10:59:48;;;;;;;3.30;1.20;;;;;;;16.14;36.16;99445.50;6245588;28;20056;-75
2024/03/26 11:02:53;;;;;;;1.60;1.20;;;;;;;17.05;35.65;99432.44;6246877;28;20049;-75
2024/03/26 11:05:58;;;;;;;2.83;1.10;;;;;;;17.76;37.25;99441.25;6246021;28;20132;-75
2024/03/26 11:09:03;;;;;;;2.08;1.10;;;;;;;17.82;36.95;99430.06;6245576;28;20064;-74
2024/03/26 11:12:12;;;;;;;1.85;1.20;;;;;;;17.65;35.00;99418.59;6245338;28;20050;-75
2024/03/26 11:15:27;;;;;;;2.95;1.15;;;;;;;18.26;36.02;99414.16;6245502;28;20125;-75
2024/03/26 11:18:31;;;;;;;2.95;1.20;;;;;;;18.25;34.89;99412.50;6246796;28;20172;-75
2024/03/26 11:21:41;;;;;;;2.60;1.15;;;;;;;17.40;34.53;99407.00;6245347;28;20058;-74
2024/03/26 11:24:42;;;;;;;1.95;1.02;;;;;;;17.30;36.14;99405.31;6244558;28;20053;-74
2024/03/26 11:27:43;;;;;;;1.15;0.98;;;;;;;16.50;35.68;99402.53;6245210;28;20521;-75
2024/03/26 11:30:44;;;;;;;2.05;0.98;;;;;;;17.17;35.74;99402.22;6245203;28;20120;-74
2024/03/26 11:33:52;;;;;;;1.97;1.30;;;;;;;17.46;37.39;99401.13;6246574;28;20053;-75
2024/03/26 11:36:55;;;;;;;0.95;0.85;;;;;;;17.77;36.20;99388.31;6246526;28;20116;-75
2024/03/26 11:39:57;;;;;;;8.70;1.20;;;;;;;18.07;34.56;99387.00;6246375;28;20054;-75
2024/03/26 11:42:59;;;;;;;1.10;0.90;;;;;;;17.78;33.45;99381.22;6246266;28;20118;-75
2024/03/26 11:46:00;;;;;;;1.50;0.85;;;;;;;17.87;34.44;99386.44;6245032;28;20045;-75
2024/03/26 11:49:06;;;;;;;2.35;0.90;;;;;;;17.91;33.80;99373.72;6243954;28;20485;-75
2024/03/26 11:52:08;;;;;;;1.27;0.90;;;;;;;17.78;34.47;99376.78;6245651;28;20108;-67
2024/03/26 11:55:09;;;;;;;10.35;1.20;;;;;;;18.08;34.88;99367.56;6245743;28;20049;-67
2024/03/26 11:58:10;;;;;;;1.63;0.80;;;;;;;18.28;34.27;99369.94;6244687;28;20049;-68
2024/03/26 12:01:10;;;;;;;3.97;1.25;;;;;;;19.28;34.97;99367.31;6244076;28;20111;-67
2024/03/26 12:04:11;;;;;;;4.30;1.30;;;;;;;19.09;34.24;99373.75;6245059;28;20520;-75
2024/03/26 12:07:19;;;;;;;2.53;0.90;;;;;;;18.59;34.07;99370.19;6244718;28;20050;-74
2024/03/26 12:10:20;;;;;;;7.97;1.17;;;;;;;18.40;33.08;99362.53;6248997;28;20391;-75
2024/03/26 12:13:21;;;;;;;1.27;0.82;;;;;;;18.50;31.54;99355.31;6249878;28;20054;-75
2024/03/26 12:16:26;;;;;;;1.13;0.70;;;;;;;17.90;31.90;99357.06;6249359;28;20461;-75
2024/03/26 12:19:27;;;;;;;1.45;1.00;;;;;;;18.07;32.90;99346.59;6250406;28;20057;-75
2024/03/26 12:22:28;;;;;;;6.25;0.85;;;;;;;17.82;31.52;99335.91;6248868;28;20049;-74
2024/03/26 12:25:32;;;;;;;4.55;0.80;;;;;;;17.69;32.19;99330.22;6250243;28;20049;-74
2024/03/26 12:28:34;;;;;;;1.35;0.77;;;;;;;17.06;32.74;99336.56;6250486;28;20281;-75
2024/03/26 12:31:39;;;;;;;;;;;;;;;17.02;33.23;99335.22;6250492;28;20055;-75
2024/03/26 12:34:41;;;;;;;0.85;0.77;;;;;;;17.55;32.67;99325.53;6249796;28;19920;-67
2024/03/26 12:37:43;;;;;;;3.05;1.23;;;;;;;17.48;32.76;99314.75;6249556;28;20050;-67
2024/03/26 12:40:44;;;;;;;1.20;0.90;;;;;;;17.74;34.24;99304.19;6249532;28;20424;-67
2024/03/26 12:43:45;;;;;;;6.57;1.08;;;;;;;17.67;32.54;99300.53;6248092;28;20060;-67
2024/03/26 12:46:47;;;;;;;2.30;1.48;;;;;;;17.70;31.83;99279.94;6249479;28;20422;-67
2024/03/26 12:49:51;;;;;;;2.58;0.90;;;;;;;17.93;32.57;99274.13;6247959;28;20053;-67
2024/03/26 12:52:52;;;;;;;1.83;1.10;;;;;;;17.85;31.35;99266.16;6249281;28;20061;-67
2024/03/26 12:55:53;;;;;;;2.50;1.27;;;;;;;18.11;31.87;99263.44;6249316;28;20050;-67
2024/03/26 12:58:54;;;;;;;3.22;0.93;;;;;;;18.67;31.77;99253.94;6248019;28;20410;-67
2024/03/26 13:01:55;;;;;;;2.30;1.17;;;;;;;18.57;29.81;99252.44;6248929;28;20080;-67
2024/03/26 13:04:56;;;;;;;2.67;0.90;;;;;;;18.26;30.56;99231.97;6248011;28;20053;-67
2024/03/26 13:07:57;;;;;;;3.08;1.33;;;;;;;18.43;30.32;99209.03;6231358;28;20059;-67
2024/03/26 13:11:02;;;;;;;6.30;3.10;;;;;;;18.25;30.43;99206.56;6247777;28;20041;-67
2024/03/26 13:14:04;;;;;;;6.25;2.72;;;;;;;18.10;29.84;99193.19;6248626;28;20099;-67
2024/03/26 13:17:05;;;;;;;2.40;1.30;;;;;;;18.28;28.56;99185.09;6247481;28;20410;-67
2024/03/26 13:20:08;;;;;;;2.67;0.90;;;;;;;17.85;29.32;99182.56;6247567;28;20103;-67
2024/03/26 13:23:09;;;;;;;2.53;0.88;;;;;;;17.83;30.22;99184.56;6247186;28;20084;-67
2024/03/26 13:26:10;;;;;;;1.75;0.90;;;;;;;17.50;29.15;99176.50;6248764;28;20055;-67
2024/03/26 13:29:11;;;;;;;2.35;0.73;;;;;;;17.36;29.15;99169.19;6247067;28;20132;-68
2024/03/26 13:32:12;;;;;;;0.80;0.73;;;;;;;17.71;30.15;99165.53;6248573;28;20398;-68
2024/03/26 13:35:13;;;;;;;0.65;0.60;;;;;;;17.50;30.32;99154.56;6247030;28;20131;-67
2024/03/26 13:38:14;;;;;;;2.70;1.00;;;;;;;17.69;29.33;99140.28;6247358;28;20095;-67
2024/03/26 13:41:15;;;;;;;0.60;0.57;;;;;;;17.77;30.24;99137.69;6246692;28;20144;-68
2024/03/26 13:44:18;;;;;;;3.67;0.98;;;;;;;17.84;30.10;99137.88;6248406;28;20489;-67
2024/03/26 13:47:19;;;;;;;1.10;0.90;;;;;;;17.46;29.21;99127.72;6248115;28;20060;-68
2024/03/26 13:50:21;;;;;;;2.03;0.70;;;;;;;17.67;31.18;99124.63;6247859;28;20512;-67
2024/03/26 13:53:21;;;;;;;1.35;0.90;;;;;;;17.84;30.10;99127.31;6247821;28;20050;-67
2024/03/26 13:56:22;;;;;;;1.02;0.90;;;;;;;17.76;30.19;99140.47;6247831;28;20458;-68
2024/03/26 13:59:23;;;;;;;1.27;0.68;;;;;;;17.40;30.51;99138.03;6247705;28;20057;-67
2024/03/26 14:02:24;;;;;;;1.90;1.20;;;;;;;17.53;31.27;99144.53;6246201;28;20053;-68
2024/03/26 14:05:25;;;;;;;2.58;1.40;;;;;;;17.03;29.92;99139.25;6246403;28;20620;-67
2024/03/26 14:08:26;;;;;;;19.08;11.25;;;;;;;17.45;31.10;99136.59;6262959;28;20050;-68
2024/03/26 14:11:29;;;;;;;60.20;26.73;;;;;;;17.45;30.11;99152.41;6246474;28;20049;-68
2024/03/26 14:14:30;;;;;;;19.40;9.90;;;;;;;17.84;29.63;99145.78;6247280;28;20453;-67
2024/03/26 14:17:31;;;;;;;3.53;1.60;;;;;;;17.81;30.25;99144.28;6246366;28;20059;-68